Terminal Aerodrome Forecast
Issued by NWS Grand Rapids, MI

Home | Current Version | Previous Version | Text Only | Print | Product List | Glossary On
Versions: 1 2 3 4 5 6 7 8 9 10 11 12 13 14 15 16 17 18 19 20 21 22 23 24 25
000
FTUS43 KGRR 131333 AAB
TAFGRR
TAF AMD
KGRR 131333Z 1314/1412 15009KT 3/4SM -SN OVC025
     FM131430 14012KT 2SM -SN BR OVC020
     FM131700 13013KT 4SM -SN BR OVC030
     FM131900 12011KT 3/4SM -SN BR OVC010
     FM132300 06010KT 3/4SM -SN BR OVC010
     FM140300 36008KT 5SM -SN BR OVC035
     FM140600 36006KT P6SM BKN080=

USA.gov is the U.S. government's official web portal to all federal, state and local government web resources and services.